sensor_id;sensor_type;location;lat;lon;timestamp;P1;durP1;ratioP1;P2;durP2;ratioP2
64033;SDS011;50280;49.864;8.638;2022-07-29T00:02:32;5.18;;;2.75;;
64033;SDS011;50280;49.864;8.638;2022-07-29T00:05:05;6.38;;;2.88;;
64033;SDS011;50280;49.864;8.638;2022-07-29T00:07:40;7.05;;;2.85;;
64033;SDS011;50280;49.864;8.638;2022-07-29T00:10:13;4.95;;;2.80;;
64033;SDS011;50280;49.864;8.638;2022-07-29T00:12:46;5.70;;;2.63;;
64033;SDS011;50280;49.864;8.638;2022-07-29T00:15:19;6.70;;;2.83;;
64033;SDS011;50280;49.864;8.638;2022-07-29T00:17:51;5.68;;;2.70;;
64033;SDS011;50280;49.864;8.638;2022-07-29T00:20:24;4.30;;;2.80;;
64033;SDS011;50280;49.864;8.638;2022-07-29T00:22:56;6.22;;;2.90;;
64033;SDS011;50280;49.864;8.638;2022-07-29T00:25:29;5.25;;;2.70;;
64033;SDS011;50280;49.864;8.638;2022-07-29T00:28:03;6.10;;;2.97;;
64033;SDS011;50280;49.864;8.638;2022-07-29T00:30:36;5.68;;;2.65;;
64033;SDS011;50280;49.864;8.638;2022-07-29T00:33:08;4.72;;;2.78;;
64033;SDS011;50280;49.864;8.638;2022-07-29T00:35:41;3.58;;;2.60;;
64033;SDS011;50280;49.864;8.638;2022-07-29T00:38:14;4.43;;;2.78;;
64033;SDS011;50280;49.864;8.638;2022-07-29T00:40:50;6.32;;;2.78;;
64033;SDS011;50280;49.864;8.638;2022-07-29T00:43:24;6.38;;;2.70;;
64033;SDS011;50280;49.864;8.638;2022-07-29T00:45:56;7.47;;;3.20;;
64033;SDS011;50280;49.864;8.638;2022-07-29T00:48:29;6.78;;;2.95;;
64033;SDS011;50280;49.864;8.638;2022-07-29T00:51:02;8.45;;;2.95;;
64033;SDS011;50280;49.864;8.638;2022-07-29T00:53:37;5.90;;;2.47;;
64033;SDS011;50280;49.864;8.638;2022-07-29T00:56:09;7.18;;;3.03;;
64033;SDS011;50280;49.864;8.638;2022-07-29T00:58:43;4.70;;;2.50;;
64033;SDS011;50280;49.864;8.638;2022-07-29T01:01:19;7.10;;;2.83;;
64033;SDS011;50280;49.864;8.638;2022-07-29T01:03:52;9.15;;;2.65;;
64033;SDS011;50280;49.864;8.638;2022-07-29T01:06:25;6.93;;;2.70;;
64033;SDS011;50280;49.864;8.638;2022-07-29T01:08:58;6.03;;;2.47;;
64033;SDS011;50280;49.864;8.638;2022-07-29T01:11:32;6.03;;;2.63;;
64033;SDS011;50280;49.864;8.638;2022-07-29T01:14:07;7.85;;;2.20;;
64033;SDS011;50280;49.864;8.638;2022-07-29T01:16:42;5.90;;;2.30;;
64033;SDS011;50280;49.864;8.638;2022-07-29T01:19:33;4.45;;;2.15;;
64033;SDS011;50280;49.864;8.638;2022-07-29T01:26:21;7.45;;;2.33;;
64033;SDS011;50280;49.864;8.638;2022-07-29T01:29:18;4.50;;;1.98;;
64033;SDS011;50280;49.864;8.638;2022-07-29T01:32:01;7.65;;;2.63;;
64033;SDS011;50280;49.864;8.638;2022-07-29T01:34:41;5.35;;;2.40;;
64033;SDS011;50280;49.864;8.638;2022-07-29T01:37:32;7.90;;;2.17;;
64033;SDS011;50280;49.864;8.638;2022-07-29T01:40:20;4.53;;;2.63;;
64033;SDS011;50280;49.864;8.638;2022-07-29T01:43:03;5.25;;;2.60;;
64033;SDS011;50280;49.864;8.638;2022-07-29T01:45:47;6.00;;;2.50;;
64033;SDS011;50280;49.864;8.638;2022-07-29T01:48:34;6.93;;;2.40;;
64033;SDS011;50280;49.864;8.638;2022-07-29T01:51:16;6.50;;;2.30;;
64033;SDS011;50280;49.864;8.638;2022-07-29T01:53:57;6.18;;;2.58;;
64033;SDS011;50280;49.864;8.638;2022-07-29T01:56:40;4.88;;;2.47;;
64033;SDS011;50280;49.864;8.638;2022-07-29T01:59:16;4.97;;;2.42;;
64033;SDS011;50280;49.864;8.638;2022-07-29T02:01:53;5.38;;;2.50;;
64033;SDS011;50280;49.864;8.638;2022-07-29T02:04:30;5.43;;;2.40;;
64033;SDS011;50280;49.864;8.638;2022-07-29T02:07:08;5.38;;;2.28;;
64033;SDS011;50280;49.864;8.638;2022-07-29T02:09:49;5.95;;;2.40;;
64033;SDS011;50280;49.864;8.638;2022-07-29T02:12:25;7.47;;;2.47;;
64033;SDS011;50280;49.864;8.638;2022-07-29T02:15:02;5.35;;;2.42;;
64033;SDS011;50280;49.864;8.638;2022-07-29T02:17:41;4.55;;;2.78;;
64033;SDS011;50280;49.864;8.638;2022-07-29T02:20:20;5.35;;;2.53;;
64033;SDS011;50280;49.864;8.638;2022-07-29T02:22:57;7.25;;;2.47;;
64033;SDS011;50280;49.864;8.638;2022-07-29T02:25:33;12.65;;;3.10;;
64033;SDS011;50280;49.864;8.638;2022-07-29T02:28:07;5.57;;;2.47;;
64033;SDS011;50280;49.864;8.638;2022-07-29T02:30:40;6.93;;;2.67;;
64033;SDS011;50280;49.864;8.638;2022-07-29T02:33:18;6.80;;;2.78;;
64033;SDS011;50280;49.864;8.638;2022-07-29T02:35:55;7.20;;;2.60;;
64033;SDS011;50280;49.864;8.638;2022-07-29T02:38:32;7.60;;;2.50;;
64033;SDS011;50280;49.864;8.638;2022-07-29T02:41:10;5.35;;;2.60;;
64033;SDS011;50280;49.864;8.638;2022-07-29T02:43:52;6.25;;;2.47;;
64033;SDS011;50280;49.864;8.638;2022-07-29T02:46:36;7.18;;;2.80;;
64033;SDS011;50280;49.864;8.638;2022-07-29T02:49:25;5.32;;;2.58;;
64033;SDS011;50280;49.864;8.638;2022-07-29T02:52:08;6.43;;;2.83;;
64033;SDS011;50280;49.864;8.638;2022-07-29T02:54:58;4.82;;;2.80;;
64033;SDS011;50280;49.864;8.638;2022-07-29T02:57:46;6.35;;;3.03;;
64033;SDS011;50280;49.864;8.638;2022-07-29T03:00:30;4.68;;;2.60;;
64033;SDS011;50280;49.864;8.638;2022-07-29T03:03:10;7.05;;;2.85;;
64033;SDS011;50280;49.864;8.638;2022-07-29T03:05:49;5.40;;;2.40;;
64033;SDS011;50280;49.864;8.638;2022-07-29T03:08:28;6.15;;;2.50;;
64033;SDS011;50280;49.864;8.638;2022-07-29T03:11:04;7.53;;;2.90;;
64033;SDS011;50280;49.864;8.638;2022-07-29T03:13:39;6.13;;;3.00;;
64033;SDS011;50280;49.864;8.638;2022-07-29T03:16:13;6.70;;;3.00;;
64033;SDS011;50280;49.864;8.638;2022-07-29T03:18:47;6.22;;;2.72;;
64033;SDS011;50280;49.864;8.638;2022-07-29T03:21:22;6.10;;;2.42;;
64033;SDS011;50280;49.864;8.638;2022-07-29T03:23:55;7.05;;;2.90;;
64033;SDS011;50280;49.864;8.638;2022-07-29T03:26:27;4.70;;;2.72;;
64033;SDS011;50280;49.864;8.638;2022-07-29T03:29:00;7.57;;;3.15;;
64033;SDS011;50280;49.864;8.638;2022-07-29T03:31:32;7.03;;;2.97;;
64033;SDS011;50280;49.864;8.638;2022-07-29T03:34:05;6.63;;;2.78;;
64033;SDS011;50280;49.864;8.638;2022-07-29T03:36:38;6.45;;;3.10;;
64033;SDS011;50280;49.864;8.638;2022-07-29T03:39:11;7.60;;;3.58;;
64033;SDS011;50280;49.864;8.638;2022-07-29T03:41:55;9.25;;;3.72;;
64033;SDS011;50280;49.864;8.638;2022-07-29T03:44:32;7.95;;;3.90;;
64033;SDS011;50280;49.864;8.638;2022-07-29T03:47:08;11.35;;;3.97;;
64033;SDS011;50280;49.864;8.638;2022-07-29T03:49:46;8.20;;;4.13;;
64033;SDS011;50280;49.864;8.638;2022-07-29T03:52:25;7.32;;;3.95;;
64033;SDS011;50280;49.864;8.638;2022-07-29T03:54:58;10.52;;;4.25;;
64033;SDS011;50280;49.864;8.638;2022-07-29T03:57:31;9.60;;;4.20;;
64033;SDS011;50280;49.864;8.638;2022-07-29T04:00:06;8.07;;;3.90;;
64033;SDS011;50280;49.864;8.638;2022-07-29T04:02:41;11.40;;;3.80;;
64033;SDS011;50280;49.864;8.638;2022-07-29T04:05:16;7.57;;;3.60;;
64033;SDS011;50280;49.864;8.638;2022-07-29T04:07:50;10.40;;;3.20;;
64033;SDS011;50280;49.864;8.638;2022-07-29T04:10:23;7.68;;;2.90;;
64033;SDS011;50280;49.864;8.638;2022-07-29T04:12:55;8.30;;;3.13;;
64033;SDS011;50280;49.864;8.638;2022-07-29T04:15:28;11.73;;;3.45;;
64033;SDS011;50280;49.864;8.638;2022-07-29T04:18:00;7.70;;;3.00;;
64033;SDS011;50280;49.864;8.638;2022-07-29T04:20:33;6.10;;;3.00;;
64033;SDS011;50280;49.864;8.638;2022-07-29T04:23:06;6.88;;;3.17;;
64033;SDS011;50280;49.864;8.638;2022-07-29T04:25:39;7.78;;;3.03;;
64033;SDS011;50280;49.864;8.638;2022-07-29T04:28:13;6.03;;;3.10;;
64033;SDS011;50280;49.864;8.638;2022-07-29T04:30:45;5.55;;;2.90;;
64033;SDS011;50280;49.864;8.638;2022-07-29T04:33:18;6.93;;;3.28;;
64033;SDS011;50280;49.864;8.638;2022-07-29T04:35:50;6.70;;;3.10;;
64033;SDS011;50280;49.864;8.638;2022-07-29T04:38:24;4.28;;;2.42;;
64033;SDS011;50280;49.864;8.638;2022-07-29T04:40:56;5.38;;;2.70;;
64033;SDS011;50280;49.864;8.638;2022-07-29T04:43:29;3.97;;;2.60;;
64033;SDS011;50280;49.864;8.638;2022-07-29T04:46:01;8.05;;;2.90;;
64033;SDS011;50280;49.864;8.638;2022-07-29T04:48:34;7.05;;;3.42;;
64033;SDS011;50280;49.864;8.638;2022-07-29T04:51:06;5.97;;;2.90;;
64033;SDS011;50280;49.864;8.638;2022-07-29T04:53:40;6.70;;;2.97;;
64033;SDS011;50280;49.864;8.638;2022-07-29T04:56:13;12.95;;;3.33;;
64033;SDS011;50280;49.864;8.638;2022-07-29T04:58:45;5.60;;;2.60;;
64033;SDS011;50280;49.864;8.638;2022-07-29T05:01:18;8.00;;;2.88;;
64033;SDS011;50280;49.864;8.638;2022-07-29T05:03:51;6.60;;;2.90;;
64033;SDS011;50280;49.864;8.638;2022-07-29T05:06:23;6.28;;;3.30;;
64033;SDS011;50280;49.864;8.638;2022-07-29T05:08:57;6.97;;;2.97;;
64033;SDS011;50280;49.864;8.638;2022-07-29T05:11:29;8.57;;;3.00;;
64033;SDS011;50280;49.864;8.638;2022-07-29T05:14:02;6.50;;;2.92;;
64033;SDS011;50280;49.864;8.638;2022-07-29T05:16:34;5.25;;;2.92;;
64033;SDS011;50280;49.864;8.638;2022-07-29T05:19:07;8.15;;;3.35;;
64033;SDS011;50280;49.864;8.638;2022-07-29T05:21:39;7.57;;;3.10;;
64033;SDS011;50280;49.864;8.638;2022-07-29T05:24:14;7.43;;;3.20;;
64033;SDS011;50280;49.864;8.638;2022-07-29T05:26:46;6.63;;;2.95;;
64033;SDS011;50280;49.864;8.638;2022-07-29T05:29:18;8.05;;;3.00;;
64033;SDS011;50280;49.864;8.638;2022-07-29T05:31:51;4.72;;;2.80;;
64033;SDS011;50280;49.864;8.638;2022-07-29T05:34:23;6.60;;;3.22;;
64033;SDS011;50280;49.864;8.638;2022-07-29T05:36:56;7.40;;;3.10;;
64033;SDS011;50280;49.864;8.638;2022-07-29T05:39:30;8.05;;;3.03;;
64033;SDS011;50280;49.864;8.638;2022-07-29T05:42:02;5.13;;;3.00;;
64033;SDS011;50280;49.864;8.638;2022-07-29T05:44:39;6.65;;;3.20;;
64033;SDS011;50280;49.864;8.638;2022-07-29T05:47:12;6.80;;;3.40;;
64033;SDS011;50280;49.864;8.638;2022-07-29T05:49:44;8.20;;;3.33;;
64033;SDS011;50280;49.864;8.638;2022-07-29T05:52:17;9.75;;;3.30;;
64033;SDS011;50280;49.864;8.638;2022-07-29T05:54:51;5.88;;;2.88;;
64033;SDS011;50280;49.864;8.638;2022-07-29T05:57:24;8.25;;;3.45;;
64033;SDS011;50280;49.864;8.638;2022-07-29T05:59:56;6.47;;;3.47;;
64033;SDS011;50280;49.864;8.638;2022-07-29T06:02:28;6.28;;;3.30;;
64033;SDS011;50280;49.864;8.638;2022-07-29T06:05:01;5.75;;;3.30;;
64033;SDS011;50280;49.864;8.638;2022-07-29T06:07:34;5.70;;;3.20;;
64033;SDS011;50280;49.864;8.638;2022-07-29T06:10:08;7.63;;;3.80;;
64033;SDS011;50280;49.864;8.638;2022-07-29T06:12:40;7.05;;;3.47;;
64033;SDS011;50280;49.864;8.638;2022-07-29T06:15:13;6.38;;;3.50;;
64033;SDS011;50280;49.864;8.638;2022-07-29T06:17:45;8.90;;;3.45;;
64033;SDS011;50280;49.864;8.638;2022-07-29T06:20:18;8.50;;;3.40;;
64033;SDS011;50280;49.864;8.638;2022-07-29T06:22:50;5.57;;;3.78;;
64033;SDS011;50280;49.864;8.638;2022-07-29T06:25:24;7.53;;;3.40;;
64033;SDS011;50280;49.864;8.638;2022-07-29T06:27:57;6.32;;;3.30;;
64033;SDS011;50280;49.864;8.638;2022-07-29T06:30:30;6.35;;;3.35;;
64033;SDS011;50280;49.864;8.638;2022-07-29T06:33:02;5.60;;;3.17;;
64033;SDS011;50280;49.864;8.638;2022-07-29T06:35:35;7.63;;;3.42;;
64033;SDS011;50280;49.864;8.638;2022-07-29T06:38:08;7.25;;;3.80;;
64033;SDS011;50280;49.864;8.638;2022-07-29T06:40:42;8.20;;;3.83;;
64033;SDS011;50280;49.864;8.638;2022-07-29T06:43:15;8.73;;;3.80;;
64033;SDS011;50280;49.864;8.638;2022-07-29T06:45:47;12.63;;;3.95;;
64033;SDS011;50280;49.864;8.638;2022-07-29T06:48:20;7.45;;;3.70;;
64033;SDS011;50280;49.864;8.638;2022-07-29T06:50:52;7.03;;;3.83;;
64033;SDS011;50280;49.864;8.638;2022-07-29T06:53:25;7.22;;;3.65;;
64033;SDS011;50280;49.864;8.638;2022-07-29T06:55:59;7.07;;;3.53;;
64033;SDS011;50280;49.864;8.638;2022-07-29T06:58:35;8.38;;;3.60;;
64033;SDS011;50280;49.864;8.638;2022-07-29T07:01:08;6.47;;;3.40;;
64033;SDS011;50280;49.864;8.638;2022-07-29T07:03:40;8.45;;;3.50;;
64033;SDS011;50280;49.864;8.638;2022-07-29T07:06:13;5.38;;;3.30;;
64033;SDS011;50280;49.864;8.638;2022-07-29T07:08:45;9.48;;;3.70;;
64033;SDS011;50280;49.864;8.638;2022-07-29T07:11:19;16.63;;;4.43;;
64033;SDS011;50280;49.864;8.638;2022-07-29T07:13:53;6.38;;;3.60;;
64033;SDS011;50280;49.864;8.638;2022-07-29T07:16:26;8.35;;;3.63;;
64033;SDS011;50280;49.864;8.638;2022-07-29T07:18:58;7.07;;;3.78;;
64033;SDS011;50280;49.864;8.638;2022-07-29T07:21:31;8.60;;;3.75;;
64033;SDS011;50280;49.864;8.638;2022-07-29T07:24:05;7.75;;;3.30;;
64033;SDS011;50280;49.864;8.638;2022-07-29T07:26:39;7.72;;;3.80;;
64033;SDS011;50280;49.864;8.638;2022-07-29T07:29:12;6.47;;;3.30;;
64033;SDS011;50280;49.864;8.638;2022-07-29T07:31:44;5.47;;;3.67;;
64033;SDS011;50280;49.864;8.638;2022-07-29T07:34:17;5.75;;;3.70;;
64033;SDS011;50280;49.864;8.638;2022-07-29T07:36:49;6.25;;;3.72;;
64033;SDS011;50280;49.864;8.638;2022-07-29T07:39:22;10.27;;;3.90;;
64033;SDS011;50280;49.864;8.638;2022-07-29T07:41:55;6.85;;;3.47;;
64033;SDS011;50280;49.864;8.638;2022-07-29T07:44:28;6.68;;;3.83;;
64033;SDS011;50280;49.864;8.638;2022-07-29T07:47:00;6.45;;;3.72;;
64033;SDS011;50280;49.864;8.638;2022-07-29T07:49:33;7.10;;;3.80;;
64033;SDS011;50280;49.864;8.638;2022-07-29T07:52:05;5.90;;;3.72;;
64033;SDS011;50280;49.864;8.638;2022-07-29T07:54:37;8.30;;;3.90;;
64033;SDS011;50280;49.864;8.638;2022-07-29T07:57:11;5.93;;;3.65;;
64033;SDS011;50280;49.864;8.638;2022-07-29T07:59:45;5.10;;;3.50;;
64033;SDS011;50280;49.864;8.638;2022-07-29T08:02:18;5.75;;;3.53;;
64033;SDS011;50280;49.864;8.638;2022-07-29T08:04:50;8.27;;;3.83;;
64033;SDS011;50280;49.864;8.638;2022-07-29T08:07:23;7.80;;;3.50;;
64033;SDS011;50280;49.864;8.638;2022-07-29T08:09:55;6.95;;;3.97;;
64033;SDS011;50280;49.864;8.638;2022-07-29T08:12:29;5.18;;;3.50;;
64033;SDS011;50280;49.864;8.638;2022-07-29T08:15:01;5.60;;;4.07;;
64033;SDS011;50280;49.864;8.638;2022-07-29T08:17:35;6.47;;;4.05;;
64033;SDS011;50280;49.864;8.638;2022-07-29T08:20:08;7.03;;;4.13;;
64033;SDS011;50280;49.864;8.638;2022-07-29T08:22:41;6.28;;;4.18;;
64033;SDS011;50280;49.864;8.638;2022-07-29T08:25:14;6.30;;;4.10;;
64033;SDS011;50280;49.864;8.638;2022-07-29T08:27:47;5.18;;;3.72;;
64033;SDS011;50280;49.864;8.638;2022-07-29T08:30:20;5.88;;;3.97;;
64033;SDS011;50280;49.864;8.638;2022-07-29T08:32:53;7.00;;;3.67;;
64033;SDS011;50280;49.864;8.638;2022-07-29T08:35:25;5.45;;;4.00;;
64033;SDS011;50280;49.864;8.638;2022-07-29T08:37:58;6.97;;;3.80;;
64033;SDS011;50280;49.864;8.638;2022-07-29T08:40:31;6.00;;;4.05;;
64033;SDS011;50280;49.864;8.638;2022-07-29T08:43:05;8.77;;;3.95;;
64033;SDS011;50280;49.864;8.638;2022-07-29T08:45:41;7.25;;;4.18;;
64033;SDS011;50280;49.864;8.638;2022-07-29T08:48:18;5.82;;;3.70;;
64033;SDS011;50280;49.864;8.638;2022-07-29T08:50:55;4.78;;;3.97;;
64033;SDS011;50280;49.864;8.638;2022-07-29T08:53:29;5.53;;;3.83;;
64033;SDS011;50280;49.864;8.638;2022-07-29T08:56:03;6.45;;;3.70;;
64033;SDS011;50280;49.864;8.638;2022-07-29T08:58:39;5.78;;;3.80;;
64033;SDS011;50280;49.864;8.638;2022-07-29T09:01:13;7.15;;;4.05;;
64033;SDS011;50280;49.864;8.638;2022-07-29T09:03:54;4.45;;;3.63;;
64033;SDS011;50280;49.864;8.638;2022-07-29T09:06:29;5.95;;;3.80;;
64033;SDS011;50280;49.864;8.638;2022-07-29T09:09:08;6.03;;;3.90;;
64033;SDS011;50280;49.864;8.638;2022-07-29T09:11:41;7.53;;;4.10;;
64033;SDS011;50280;49.864;8.638;2022-07-29T09:14:17;4.68;;;3.88;;
64033;SDS011;50280;49.864;8.638;2022-07-29T09:16:50;5.15;;;3.63;;
64033;SDS011;50280;49.864;8.638;2022-07-29T09:19:27;6.50;;;3.58;;
64033;SDS011;50280;49.864;8.638;2022-07-29T09:22:03;6.65;;;3.95;;
64033;SDS011;50280;49.864;8.638;2022-07-29T09:24:40;5.57;;;4.03;;
64033;SDS011;50280;49.864;8.638;2022-07-29T09:27:20;5.82;;;4.40;;
64033;SDS011;50280;49.864;8.638;2022-07-29T09:29:56;5.20;;;3.75;;
64033;SDS011;50280;49.864;8.638;2022-07-29T09:32:31;8.20;;;4.15;;
64033;SDS011;50280;49.864;8.638;2022-07-29T09:35:17;6.43;;;3.72;;
64033;SDS011;50280;49.864;8.638;2022-07-29T09:37:54;6.30;;;4.15;;
64033;SDS011;50280;49.864;8.638;2022-07-29T09:40:27;5.32;;;3.92;;
64033;SDS011;50280;49.864;8.638;2022-07-29T09:43:09;6.40;;;4.07;;
64033;SDS011;50280;49.864;8.638;2022-07-29T09:45:45;6.60;;;4.45;;
64033;SDS011;50280;49.864;8.638;2022-07-29T09:48:18;7.05;;;4.20;;
64033;SDS011;50280;49.864;8.638;2022-07-29T09:50:55;6.60;;;4.10;;
64033;SDS011;50280;49.864;8.638;2022-07-29T09:53:31;5.00;;;3.80;;
64033;SDS011;50280;49.864;8.638;2022-07-29T09:56:06;6.38;;;4.20;;
64033;SDS011;50280;49.864;8.638;2022-07-29T09:58:38;4.35;;;3.70;;
64033;SDS011;50280;49.864;8.638;2022-07-29T10:01:12;5.53;;;4.10;;
64033;SDS011;50280;49.864;8.638;2022-07-29T10:03:51;5.45;;;3.88;;
64033;SDS011;50280;49.864;8.638;2022-07-29T10:06:24;6.13;;;4.47;;
64033;SDS011;50280;49.864;8.638;2022-07-29T10:09:06;6.55;;;4.28;;
64033;SDS011;50280;49.864;8.638;2022-07-29T10:11:40;6.75;;;4.07;;
64033;SDS011;50280;49.864;8.638;2022-07-29T10:14:12;5.07;;;4.10;;
64033;SDS011;50280;49.864;8.638;2022-07-29T10:16:48;5.35;;;4.00;;
64033;SDS011;50280;49.864;8.638;2022-07-29T10:19:20;7.82;;;4.22;;
64033;SDS011;50280;49.864;8.638;2022-07-29T10:21:53;7.50;;;3.70;;
64033;SDS011;50280;49.864;8.638;2022-07-29T10:24:27;6.47;;;3.90;;
64033;SDS011;50280;49.864;8.638;2022-07-29T10:27:03;6.55;;;4.15;;
64033;SDS011;50280;49.864;8.638;2022-07-29T10:29:40;7.93;;;3.90;;
64033;SDS011;50280;49.864;8.638;2022-07-29T10:32:16;6.93;;;3.88;;
64033;SDS011;50280;49.864;8.638;2022-07-29T10:35:19;6.60;;;3.80;;
64033;SDS011;50280;49.864;8.638;2022-07-29T10:38:33;6.28;;;3.65;;
64033;SDS011;50280;49.864;8.638;2022-07-29T10:41:29;5.22;;;3.97;;
64033;SDS011;50280;49.864;8.638;2022-07-29T10:44:39;6.47;;;4.28;;
64033;SDS011;50280;49.864;8.638;2022-07-29T10:47:23;9.27;;;4.13;;
64033;SDS011;50280;49.864;8.638;2022-07-29T10:49:58;5.35;;;4.07;;
64033;SDS011;50280;49.864;8.638;2022-07-29T10:52:52;4.80;;;3.90;;
64033;SDS011;50280;49.864;8.638;2022-07-29T10:55:31;5.55;;;3.78;;
64033;SDS011;50280;49.864;8.638;2022-07-29T10:58:13;7.05;;;4.30;;
64033;SDS011;50280;49.864;8.638;2022-07-29T11:00:48;7.05;;;4.07;;
64033;SDS011;50280;49.864;8.638;2022-07-29T11:03:43;5.53;;;4.00;;
64033;SDS011;50280;49.864;8.638;2022-07-29T11:06:19;4.95;;;4.07;;
64033;SDS011;50280;49.864;8.638;2022-07-29T11:11:49;4.97;;;3.90;;
64033;SDS011;50280;49.864;8.638;2022-07-29T11:20:41;5.28;;;4.05;;
64033;SDS011;50280;49.864;8.638;2022-07-29T11:23:17;7.28;;;4.10;;
64033;SDS011;50280;49.864;8.638;2022-07-29T11:26:13;5.38;;;3.70;;
64033;SDS011;50280;49.864;8.638;2022-07-29T11:28:50;6.18;;;4.03;;
64033;SDS011;50280;49.864;8.638;2022-07-29T11:31:35;7.03;;;4.18;;
64033;SDS011;50280;49.864;8.638;2022-07-29T11:34:16;5.80;;;4.15;;
64033;SDS011;50280;49.864;8.638;2022-07-29T11:40:10;7.32;;;4.13;;
64033;SDS011;50280;49.864;8.638;2022-07-29T11:42:49;5.30;;;3.95;;
64033;SDS011;50280;49.864;8.638;2022-07-29T11:45:23;5.93;;;4.43;;
64033;SDS011;50280;49.864;8.638;2022-07-29T11:47:58;5.40;;;4.13;;
64033;SDS011;50280;49.864;8.638;2022-07-29T11:50:32;6.55;;;4.53;;
64033;SDS011;50280;49.864;8.638;2022-07-29T11:53:11;5.85;;;3.80;;
64033;SDS011;50280;49.864;8.638;2022-07-29T11:55:46;5.77;;;4.00;;
64033;SDS011;50280;49.864;8.638;2022-07-29T11:58:31;9.80;;;4.50;;
64033;SDS011;50280;49.864;8.638;2022-07-29T12:01:05;6.07;;;5.00;;
64033;SDS011;50280;49.864;8.638;2022-07-29T12:03:37;5.47;;;3.95;;
64033;SDS011;50280;49.864;8.638;2022-07-29T12:06:12;5.75;;;4.05;;
64033;SDS011;50280;49.864;8.638;2022-07-29T12:08:48;8.75;;;4.10;;
64033;SDS011;50280;49.864;8.638;2022-07-29T12:11:23;5.97;;;4.20;;
64033;SDS011;50280;49.864;8.638;2022-07-29T12:13:56;4.93;;;4.18;;
64033;SDS011;50280;49.864;8.638;2022-07-29T12:16:34;6.50;;;4.40;;
64033;SDS011;50280;49.864;8.638;2022-07-29T12:19:08;6.65;;;4.00;;
64033;SDS011;50280;49.864;8.638;2022-07-29T12:21:44;6.57;;;4.28;;
64033;SDS011;50280;49.864;8.638;2022-07-29T12:24:18;5.22;;;4.07;;
64033;SDS011;50280;49.864;8.638;2022-07-29T12:26:53;5.88;;;3.95;;
64033;SDS011;50280;49.864;8.638;2022-07-29T12:29:29;10.60;;;3.78;;
64033;SDS011;50280;49.864;8.638;2022-07-29T12:32:02;6.07;;;3.78;;
64033;SDS011;50280;49.864;8.638;2022-07-29T12:34:36;6.43;;;3.70;;
64033;SDS011;50280;49.864;8.638;2022-07-29T12:37:08;4.47;;;3.78;;
64033;SDS011;50280;49.864;8.638;2022-07-29T12:39:43;7.53;;;3.92;;
64033;SDS011;50280;49.864;8.638;2022-07-29T12:42:16;7.70;;;3.90;;
64033;SDS011;50280;49.864;8.638;2022-07-29T12:44:49;4.30;;;3.67;;
64033;SDS011;50280;49.864;8.638;2022-07-29T12:47:22;4.97;;;3.83;;
64033;SDS011;50280;49.864;8.638;2022-07-29T12:50:07;5.63;;;3.95;;
64033;SDS011;50280;49.864;8.638;2022-07-29T12:52:43;4.72;;;3.60;;
64033;SDS011;50280;49.864;8.638;2022-07-29T12:58:13;6.72;;;3.75;;
64033;SDS011;50280;49.864;8.638;2022-07-29T13:01:02;6.55;;;4.03;;
64033;SDS011;50280;49.864;8.638;2022-07-29T13:03:46;5.57;;;3.53;;
64033;SDS011;50280;49.864;8.638;2022-07-29T13:06:33;4.53;;;3.55;;
64033;SDS011;50280;49.864;8.638;2022-07-29T13:09:10;5.35;;;4.00;;
64033;SDS011;50280;49.864;8.638;2022-07-29T13:11:48;5.38;;;3.50;;
64033;SDS011;50280;49.864;8.638;2022-07-29T13:14:30;7.15;;;3.83;;
64033;SDS011;50280;49.864;8.638;2022-07-29T13:17:05;6.72;;;3.80;;
64033;SDS011;50280;49.864;8.638;2022-07-29T13:19:42;6.28;;;3.85;;
64033;SDS011;50280;49.864;8.638;2022-07-29T13:24:54;5.82;;;3.60;;
64033;SDS011;50280;49.864;8.638;2022-07-29T13:27:33;6.47;;;3.67;;
64033;SDS011;50280;49.864;8.638;2022-07-29T13:30:10;7.25;;;3.67;;
64033;SDS011;50280;49.864;8.638;2022-07-29T13:32:44;7.65;;;3.60;;
64033;SDS011;50280;49.864;8.638;2022-07-29T13:35:16;5.28;;;3.80;;
64033;SDS011;50280;49.864;8.638;2022-07-29T13:37:51;5.75;;;3.67;;
64033;SDS011;50280;49.864;8.638;2022-07-29T13:40:23;9.00;;;3.70;;
64033;SDS011;50280;49.864;8.638;2022-07-29T13:42:57;4.75;;;3.40;;
64033;SDS011;50280;49.864;8.638;2022-07-29T13:45:30;4.50;;;3.70;;
64033;SDS011;50280;49.864;8.638;2022-07-29T13:48:02;5.68;;;3.63;;
64033;SDS011;50280;49.864;8.638;2022-07-29T13:50:35;10.13;;;3.65;;
64033;SDS011;50280;49.864;8.638;2022-07-29T13:53:11;4.85;;;3.40;;
64033;SDS011;50280;49.864;8.638;2022-07-29T13:55:44;6.63;;;3.67;;
64033;SDS011;50280;49.864;8.638;2022-07-29T13:58:17;6.93;;;3.70;;
64033;SDS011;50280;49.864;8.638;2022-07-29T14:00:50;8.45;;;3.72;;
64033;SDS011;50280;49.864;8.638;2022-07-29T14:03:22;7.25;;;3.72;;
64033;SDS011;50280;49.864;8.638;2022-07-29T14:05:55;6.90;;;3.83;;
64033;SDS011;50280;49.864;8.638;2022-07-29T14:08:27;7.10;;;3.83;;
64033;SDS011;50280;49.864;8.638;2022-07-29T14:11:00;9.07;;;3.78;;
64033;SDS011;50280;49.864;8.638;2022-07-29T14:13:33;6.35;;;3.90;;
64033;SDS011;50280;49.864;8.638;2022-07-29T14:16:06;10.30;;;3.90;;
64033;SDS011;50280;49.864;8.638;2022-07-29T14:18:38;9.85;;;3.80;;
64033;SDS011;50280;49.864;8.638;2022-07-29T14:21:11;6.13;;;4.18;;
64033;SDS011;50280;49.864;8.638;2022-07-29T14:23:44;7.25;;;4.00;;
64033;SDS011;50280;49.864;8.638;2022-07-29T14:26:16;6.05;;;3.90;;
64033;SDS011;50280;49.864;8.638;2022-07-29T14:28:50;7.70;;;3.78;;
64033;SDS011;50280;49.864;8.638;2022-07-29T14:31:23;5.82;;;3.75;;
64033;SDS011;50280;49.864;8.638;2022-07-29T14:33:55;7.43;;;4.00;;
64033;SDS011;50280;49.864;8.638;2022-07-29T14:36:28;5.72;;;3.83;;
64033;SDS011;50280;49.864;8.638;2022-07-29T14:39:00;7.55;;;4.10;;
64033;SDS011;50280;49.864;8.638;2022-07-29T14:41:32;6.13;;;3.95;;
64033;SDS011;50280;49.864;8.638;2022-07-29T14:44:06;8.52;;;4.00;;
64033;SDS011;50280;49.864;8.638;2022-07-29T14:46:39;11.65;;;4.13;;
64033;SDS011;50280;49.864;8.638;2022-07-29T14:49:11;9.25;;;4.32;;
64033;SDS011;50280;49.864;8.638;2022-07-29T14:51:44;6.13;;;3.70;;
64033;SDS011;50280;49.864;8.638;2022-07-29T14:54:16;7.88;;;3.50;;
64033;SDS011;50280;49.864;8.638;2022-07-29T14:56:49;9.48;;;3.80;;
64033;SDS011;50280;49.864;8.638;2022-07-29T14:59:23;5.15;;;3.80;;
64033;SDS011;50280;49.864;8.638;2022-07-29T15:01:56;5.88;;;4.10;;
64033;SDS011;50280;49.864;8.638;2022-07-29T15:04:28;4.88;;;3.85;;
64033;SDS011;50280;49.864;8.638;2022-07-29T15:07:01;5.40;;;3.90;;
64033;SDS011;50280;49.864;8.638;2022-07-29T15:09:33;6.43;;;3.80;;
64033;SDS011;50280;49.864;8.638;2022-07-29T15:12:06;5.85;;;3.92;;
64033;SDS011;50280;49.864;8.638;2022-07-29T15:14:41;6.47;;;4.18;;
64033;SDS011;50280;49.864;8.638;2022-07-29T15:17:14;7.38;;;4.15;;
64033;SDS011;50280;49.864;8.638;2022-07-29T15:19:46;8.85;;;4.75;;
64033;SDS011;50280;49.864;8.638;2022-07-29T15:22:19;9.85;;;4.20;;
64033;SDS011;50280;49.864;8.638;2022-07-29T15:24:51;7.00;;;3.90;;
64033;SDS011;50280;49.864;8.638;2022-07-29T15:27:23;7.32;;;4.15;;
64033;SDS011;50280;49.864;8.638;2022-07-29T15:29:57;5.07;;;3.50;;
64033;SDS011;50280;49.864;8.638;2022-07-29T15:32:30;8.60;;;3.80;;
64033;SDS011;50280;49.864;8.638;2022-07-29T15:35:02;6.20;;;3.70;;
64033;SDS011;50280;49.864;8.638;2022-07-29T15:37:36;8.30;;;3.95;;
64033;SDS011;50280;49.864;8.638;2022-07-29T15:40:10;7.32;;;3.90;;
64033;SDS011;50280;49.864;8.638;2022-07-29T15:42:43;10.10;;;4.57;;
64033;SDS011;50280;49.864;8.638;2022-07-29T15:45:16;7.25;;;3.70;;
64033;SDS011;50280;49.864;8.638;2022-07-29T15:47:49;7.20;;;3.70;;
64033;SDS011;50280;49.864;8.638;2022-07-29T15:50:21;6.90;;;4.15;;
64033;SDS011;50280;49.864;8.638;2022-07-29T15:52:54;5.72;;;3.70;;
64033;SDS011;50280;49.864;8.638;2022-07-29T15:55:26;7.47;;;3.80;;
64033;SDS011;50280;49.864;8.638;2022-07-29T15:57:59;8.07;;;3.88;;
64033;SDS011;50280;49.864;8.638;2022-07-29T16:00:33;6.90;;;4.22;;